sensor_id;sensor_type;location;lat;lon;timestamp;P1;durP1;ratioP1;P2;durP2;ratioP2
15063;SDS011;7631;52.088;5.088;2023-11-21T00:02:01;4.63;;;3.77;;
15063;SDS011;7631;52.088;5.088;2023-11-21T00:04:27;5.00;;;3.70;;
15063;SDS011;7631;52.088;5.088;2023-11-21T00:06:53;4.83;;;3.97;;
15063;SDS011;7631;52.088;5.088;2023-11-21T00:09:18;3.97;;;3.43;;
15063;SDS011;7631;52.088;5.088;2023-11-21T00:11:44;4.80;;;4.03;;
15063;SDS011;7631;52.088;5.088;2023-11-21T00:14:10;4.37;;;3.50;;
15063;SDS011;7631;52.088;5.088;2023-11-21T00:16:36;4.67;;;3.80;;
15063;SDS011;7631;52.088;5.088;2023-11-21T00:19:01;5.60;;;4.03;;
15063;SDS011;7631;52.088;5.088;2023-11-21T00:21:26;5.90;;;3.70;;
15063;SDS011;7631;52.088;5.088;2023-11-21T00:23:52;5.67;;;3.60;;
15063;SDS011;7631;52.088;5.088;2023-11-21T00:26:17;4.57;;;3.80;;
15063;SDS011;7631;52.088;5.088;2023-11-21T00:28:42;4.97;;;3.83;;
15063;SDS011;7631;52.088;5.088;2023-11-21T00:31:07;5.23;;;3.90;;
15063;SDS011;7631;52.088;5.088;2023-11-21T00:33:32;5.13;;;3.83;;
15063;SDS011;7631;52.088;5.088;2023-11-21T00:35:58;5.10;;;3.77;;
15063;SDS011;7631;52.088;5.088;2023-11-21T00:38:23;4.30;;;3.80;;
15063;SDS011;7631;52.088;5.088;2023-11-21T00:40:49;4.93;;;3.70;;
15063;SDS011;7631;52.088;5.088;2023-11-21T00:43:14;4.43;;;3.40;;
15063;SDS011;7631;52.088;5.088;2023-11-21T00:45:40;5.27;;;3.50;;
15063;SDS011;7631;52.088;5.088;2023-11-21T00:48:05;5.07;;;3.60;;
15063;SDS011;7631;52.088;5.088;2023-11-21T00:50:30;4.13;;;3.43;;
15063;SDS011;7631;52.088;5.088;2023-11-21T00:52:56;3.87;;;3.37;;
15063;SDS011;7631;52.088;5.088;2023-11-21T00:55:21;4.70;;;3.63;;
15063;SDS011;7631;52.088;5.088;2023-11-21T00:57:46;3.73;;;3.33;;
15063;SDS011;7631;52.088;5.088;2023-11-21T01:00:11;4.50;;;3.43;;
15063;SDS011;7631;52.088;5.088;2023-11-21T01:02:41;4.67;;;4.00;;
15063;SDS011;7631;52.088;5.088;2023-11-21T01:05:08;5.60;;;3.77;;
15063;SDS011;7631;52.088;5.088;2023-11-21T01:07:33;4.00;;;3.57;;
15063;SDS011;7631;52.088;5.088;2023-11-21T01:09:58;3.47;;;3.17;;
15063;SDS011;7631;52.088;5.088;2023-11-21T01:12:24;4.57;;;3.43;;
15063;SDS011;7631;52.088;5.088;2023-11-21T01:14:50;4.30;;;3.40;;
15063;SDS011;7631;52.088;5.088;2023-11-21T01:17:15;3.60;;;3.10;;
15063;SDS011;7631;52.088;5.088;2023-11-21T01:19:41;4.83;;;3.60;;
15063;SDS011;7631;52.088;5.088;2023-11-21T01:22:06;3.73;;;3.40;;
15063;SDS011;7631;52.088;5.088;2023-11-21T01:24:32;4.43;;;3.80;;
15063;SDS011;7631;52.088;5.088;2023-11-21T01:26:57;4.37;;;3.40;;
15063;SDS011;7631;52.088;5.088;2023-11-21T01:29:22;3.57;;;3.20;;
15063;SDS011;7631;52.088;5.088;2023-11-21T01:31:47;3.63;;;3.30;;
15063;SDS011;7631;52.088;5.088;2023-11-21T01:34:13;3.50;;;3.20;;
15063;SDS011;7631;52.088;5.088;2023-11-21T01:36:39;4.53;;;3.47;;
15063;SDS011;7631;52.088;5.088;2023-11-21T01:39:04;3.37;;;3.07;;
15063;SDS011;7631;52.088;5.088;2023-11-21T01:41:35;3.93;;;3.23;;
15063;SDS011;7631;52.088;5.088;2023-11-21T01:44:01;4.20;;;3.47;;
15063;SDS011;7631;52.088;5.088;2023-11-21T01:46:27;4.13;;;3.23;;
15063;SDS011;7631;52.088;5.088;2023-11-21T01:48:54;3.67;;;3.23;;
15063;SDS011;7631;52.088;5.088;2023-11-21T01:51:19;3.70;;;3.30;;
15063;SDS011;7631;52.088;5.088;2023-11-21T01:53:44;3.30;;;2.80;;
15063;SDS011;7631;52.088;5.088;2023-11-21T01:56:11;4.40;;;3.37;;
15063;SDS011;7631;52.088;5.088;2023-11-21T01:58:36;3.93;;;2.80;;
15063;SDS011;7631;52.088;5.088;2023-11-21T02:01:02;3.20;;;2.90;;
15063;SDS011;7631;52.088;5.088;2023-11-21T02:03:27;3.60;;;2.90;;
15063;SDS011;7631;52.088;5.088;2023-11-21T02:05:53;3.20;;;2.90;;
15063;SDS011;7631;52.088;5.088;2023-11-21T02:08:18;3.47;;;3.10;;
15063;SDS011;7631;52.088;5.088;2023-11-21T02:10:44;4.07;;;3.23;;
15063;SDS011;7631;52.088;5.088;2023-11-21T02:13:09;3.30;;;3.00;;
15063;SDS011;7631;52.088;5.088;2023-11-21T02:15:35;3.23;;;2.93;;
15063;SDS011;7631;52.088;5.088;2023-11-21T02:18:01;3.47;;;3.03;;
15063;SDS011;7631;52.088;5.088;2023-11-21T02:20:28;3.60;;;2.97;;
15063;SDS011;7631;52.088;5.088;2023-11-21T02:22:55;3.60;;;3.00;;
15063;SDS011;7631;52.088;5.088;2023-11-21T02:25:28;4.73;;;3.30;;
15063;SDS011;7631;52.088;5.088;2023-11-21T02:27:54;4.30;;;3.03;;
15063;SDS011;7631;52.088;5.088;2023-11-21T02:30:20;4.13;;;2.53;;
15063;SDS011;7631;52.088;5.088;2023-11-21T02:32:46;3.20;;;2.90;;
15063;SDS011;7631;52.088;5.088;2023-11-21T02:35:11;3.70;;;2.90;;
15063;SDS011;7631;52.088;5.088;2023-11-21T02:37:37;3.20;;;2.80;;
15063;SDS011;7631;52.088;5.088;2023-11-21T02:40:03;3.87;;;3.07;;
15063;SDS011;7631;52.088;5.088;2023-11-21T02:42:31;3.63;;;2.90;;
15063;SDS011;7631;52.088;5.088;2023-11-21T02:44:57;3.17;;;2.80;;
15063;SDS011;7631;52.088;5.088;2023-11-21T02:47:22;3.30;;;3.00;;
15063;SDS011;7631;52.088;5.088;2023-11-21T02:49:48;3.03;;;2.63;;
15063;SDS011;7631;52.088;5.088;2023-11-21T02:52:13;2.60;;;2.30;;
15063;SDS011;7631;52.088;5.088;2023-11-21T02:54:38;3.33;;;2.87;;
15063;SDS011;7631;52.088;5.088;2023-11-21T02:57:04;3.50;;;2.90;;
15063;SDS011;7631;52.088;5.088;2023-11-21T02:59:29;2.73;;;2.43;;
15063;SDS011;7631;52.088;5.088;2023-11-21T03:01:54;2.90;;;2.60;;
15063;SDS011;7631;52.088;5.088;2023-11-21T03:04:21;3.40;;;2.90;;
15063;SDS011;7631;52.088;5.088;2023-11-21T03:06:47;2.57;;;2.37;;
15063;SDS011;7631;52.088;5.088;2023-11-21T03:09:12;3.10;;;2.50;;
15063;SDS011;7631;52.088;5.088;2023-11-21T03:11:37;4.10;;;2.57;;
15063;SDS011;7631;52.088;5.088;2023-11-21T03:14:02;2.43;;;2.10;;
15063;SDS011;7631;52.088;5.088;2023-11-21T03:16:28;3.33;;;2.90;;
15063;SDS011;7631;52.088;5.088;2023-11-21T03:18:53;3.60;;;2.77;;
15063;SDS011;7631;52.088;5.088;2023-11-21T03:21:19;2.93;;;2.50;;
15063;SDS011;7631;52.088;5.088;2023-11-21T03:23:44;2.57;;;2.37;;
15063;SDS011;7631;52.088;5.088;2023-11-21T03:26:13;3.27;;;2.30;;
15063;SDS011;7631;52.088;5.088;2023-11-21T03:28:38;2.90;;;2.57;;
15063;SDS011;7631;52.088;5.088;2023-11-21T03:31:04;3.10;;;2.80;;
15063;SDS011;7631;52.088;5.088;2023-11-21T03:33:29;3.47;;;2.50;;
15063;SDS011;7631;52.088;5.088;2023-11-21T03:35:54;3.43;;;2.63;;
15063;SDS011;7631;52.088;5.088;2023-11-21T03:38:20;3.13;;;2.60;;
15063;SDS011;7631;52.088;5.088;2023-11-21T03:40:45;3.10;;;2.57;;
15063;SDS011;7631;52.088;5.088;2023-11-21T03:43:10;4.20;;;2.77;;
15063;SDS011;7631;52.088;5.088;2023-11-21T03:45:35;2.53;;;2.33;;
15063;SDS011;7631;52.088;5.088;2023-11-21T03:48:01;3.10;;;2.60;;
15063;SDS011;7631;52.088;5.088;2023-11-21T03:50:27;2.97;;;2.57;;
15063;SDS011;7631;52.088;5.088;2023-11-21T03:52:53;3.17;;;2.33;;
15063;SDS011;7631;52.088;5.088;2023-11-21T03:55:18;2.30;;;2.10;;
15063;SDS011;7631;52.088;5.088;2023-11-21T03:57:43;3.43;;;2.53;;
15063;SDS011;7631;52.088;5.088;2023-11-21T04:00:08;2.90;;;2.50;;
15063;SDS011;7631;52.088;5.088;2023-11-21T04:02:35;3.00;;;2.50;;
15063;SDS011;7631;52.088;5.088;2023-11-21T04:05:00;2.80;;;2.47;;
15063;SDS011;7631;52.088;5.088;2023-11-21T04:07:25;3.73;;;2.80;;
15063;SDS011;7631;52.088;5.088;2023-11-21T04:09:52;3.30;;;2.80;;
15063;SDS011;7631;52.088;5.088;2023-11-21T04:12:17;2.73;;;2.43;;
15063;SDS011;7631;52.088;5.088;2023-11-21T04:14:42;2.43;;;2.17;;
15063;SDS011;7631;52.088;5.088;2023-11-21T04:17:07;2.60;;;2.40;;
15063;SDS011;7631;52.088;5.088;2023-11-21T04:19:32;2.77;;;2.50;;
15063;SDS011;7631;52.088;5.088;2023-11-21T04:21:58;2.80;;;2.13;;
15063;SDS011;7631;52.088;5.088;2023-11-21T04:24:23;2.57;;;2.37;;
15063;SDS011;7631;52.088;5.088;2023-11-21T04:26:48;2.53;;;2.33;;
15063;SDS011;7631;52.088;5.088;2023-11-21T04:29:13;3.87;;;2.60;;
15063;SDS011;7631;52.088;5.088;2023-11-21T04:31:39;3.03;;;2.40;;
15063;SDS011;7631;52.088;5.088;2023-11-21T04:34:04;3.10;;;2.57;;
15063;SDS011;7631;52.088;5.088;2023-11-21T04:36:30;3.37;;;2.57;;
15063;SDS011;7631;52.088;5.088;2023-11-21T04:38:56;3.07;;;2.70;;
15063;SDS011;7631;52.088;5.088;2023-11-21T04:41:21;2.60;;;2.23;;
15063;SDS011;7631;52.088;5.088;2023-11-21T04:43:46;2.80;;;2.50;;
15063;SDS011;7631;52.088;5.088;2023-11-21T04:46:11;2.97;;;2.50;;
15063;SDS011;7631;52.088;5.088;2023-11-21T04:48:37;2.40;;;2.17;;
15063;SDS011;7631;52.088;5.088;2023-11-21T04:51:02;2.77;;;2.47;;
15063;SDS011;7631;52.088;5.088;2023-11-21T04:53:29;3.30;;;2.73;;
15063;SDS011;7631;52.088;5.088;2023-11-21T04:55:54;4.00;;;2.50;;
15063;SDS011;7631;52.088;5.088;2023-11-21T04:58:19;3.90;;;2.33;;
15063;SDS011;7631;52.088;5.088;2023-11-21T05:00:45;3.23;;;2.23;;
15063;SDS011;7631;52.088;5.088;2023-11-21T05:03:11;3.00;;;2.30;;
15063;SDS011;7631;52.088;5.088;2023-11-21T05:05:37;4.50;;;2.37;;
15063;SDS011;7631;52.088;5.088;2023-11-21T05:08:02;2.50;;;2.30;;
15063;SDS011;7631;52.088;5.088;2023-11-21T05:10:28;2.60;;;2.40;;
15063;SDS011;7631;52.088;5.088;2023-11-21T05:12:54;2.73;;;2.20;;
15063;SDS011;7631;52.088;5.088;2023-11-21T05:15:20;2.60;;;2.13;;
15063;SDS011;7631;52.088;5.088;2023-11-21T05:17:46;3.20;;;2.73;;
15063;SDS011;7631;52.088;5.088;2023-11-21T05:20:12;2.23;;;2.03;;
15063;SDS011;7631;52.088;5.088;2023-11-21T05:22:38;2.57;;;2.13;;
15063;SDS011;7631;52.088;5.088;2023-11-21T05:25:04;3.00;;;2.00;;
15063;SDS011;7631;52.088;5.088;2023-11-21T05:27:30;2.07;;;1.80;;
15063;SDS011;7631;52.088;5.088;2023-11-21T05:29:58;2.67;;;2.37;;
15063;SDS011;7631;52.088;5.088;2023-11-21T05:32:24;3.80;;;2.60;;
15063;SDS011;7631;52.088;5.088;2023-11-21T05:34:49;4.10;;;2.87;;
15063;SDS011;7631;52.088;5.088;2023-11-21T05:37:14;2.43;;;2.20;;
15063;SDS011;7631;52.088;5.088;2023-11-21T05:39:39;2.83;;;2.20;;
15063;SDS011;7631;52.088;5.088;2023-11-21T05:42:04;2.63;;;2.23;;
15063;SDS011;7631;52.088;5.088;2023-11-21T05:44:30;2.57;;;2.23;;
15063;SDS011;7631;52.088;5.088;2023-11-21T05:46:55;3.13;;;2.23;;
15063;SDS011;7631;52.088;5.088;2023-11-21T05:49:20;2.67;;;2.10;;
15063;SDS011;7631;52.088;5.088;2023-11-21T05:51:50;2.47;;;2.10;;
15063;SDS011;7631;52.088;5.088;2023-11-21T05:54:18;2.13;;;1.90;;
15063;SDS011;7631;52.088;5.088;2023-11-21T05:56:44;3.10;;;2.17;;
15063;SDS011;7631;52.088;5.088;2023-11-21T05:59:09;2.80;;;1.97;;
15063;SDS011;7631;52.088;5.088;2023-11-21T06:01:35;2.47;;;2.27;;
15063;SDS011;7631;52.088;5.088;2023-11-21T06:04:03;2.77;;;2.17;;
15063;SDS011;7631;52.088;5.088;2023-11-21T06:06:29;2.87;;;2.50;;
15063;SDS011;7631;52.088;5.088;2023-11-21T06:08:54;3.10;;;2.80;;
15063;SDS011;7631;52.088;5.088;2023-11-21T06:11:19;2.30;;;2.07;;
15063;SDS011;7631;52.088;5.088;2023-11-21T06:13:44;2.50;;;2.30;;
15063;SDS011;7631;52.088;5.088;2023-11-21T06:16:10;2.83;;;2.20;;
15063;SDS011;7631;52.088;5.088;2023-11-21T06:18:35;3.03;;;2.30;;
15063;SDS011;7631;52.088;5.088;2023-11-21T06:21:00;3.20;;;2.37;;
15063;SDS011;7631;52.088;5.088;2023-11-21T06:23:26;3.00;;;2.33;;
15063;SDS011;7631;52.088;5.088;2023-11-21T06:25:51;2.80;;;2.20;;
15063;SDS011;7631;52.088;5.088;2023-11-21T06:28:16;2.70;;;2.40;;
15063;SDS011;7631;52.088;5.088;2023-11-21T06:30:42;3.70;;;2.50;;
15063;SDS011;7631;52.088;5.088;2023-11-21T06:33:09;4.10;;;2.50;;
15063;SDS011;7631;52.088;5.088;2023-11-21T06:35:34;3.27;;;2.70;;
15063;SDS011;7631;52.088;5.088;2023-11-21T06:37:59;4.40;;;3.23;;
15063;SDS011;7631;52.088;5.088;2023-11-21T06:40:25;4.40;;;2.97;;
15063;SDS011;7631;52.088;5.088;2023-11-21T06:42:50;2.57;;;2.00;;
15063;SDS011;7631;52.088;5.088;2023-11-21T06:45:15;2.93;;;2.63;;
15063;SDS011;7631;52.088;5.088;2023-11-21T06:47:41;3.27;;;2.27;;
15063;SDS011;7631;52.088;5.088;2023-11-21T06:50:06;2.53;;;2.30;;
15063;SDS011;7631;52.088;5.088;2023-11-21T06:52:32;2.87;;;2.57;;
15063;SDS011;7631;52.088;5.088;2023-11-21T06:54:57;3.27;;;2.10;;
15063;SDS011;7631;52.088;5.088;2023-11-21T06:57:23;2.40;;;2.13;;
15063;SDS011;7631;52.088;5.088;2023-11-21T06:59:48;2.43;;;2.20;;
15063;SDS011;7631;52.088;5.088;2023-11-21T07:02:13;2.63;;;2.20;;
15063;SDS011;7631;52.088;5.088;2023-11-21T07:04:39;3.83;;;2.73;;
15063;SDS011;7631;52.088;5.088;2023-11-21T07:07:06;3.20;;;2.50;;
15063;SDS011;7631;52.088;5.088;2023-11-21T07:09:32;3.17;;;2.57;;
15063;SDS011;7631;52.088;5.088;2023-11-21T07:11:57;3.80;;;2.60;;
15063;SDS011;7631;52.088;5.088;2023-11-21T07:14:22;3.17;;;2.47;;
15063;SDS011;7631;52.088;5.088;2023-11-21T07:16:48;4.23;;;2.80;;
15063;SDS011;7631;52.088;5.088;2023-11-21T07:19:13;3.30;;;2.80;;
15063;SDS011;7631;52.088;5.088;2023-11-21T07:21:38;3.87;;;2.53;;
15063;SDS011;7631;52.088;5.088;2023-11-21T07:24:07;3.67;;;2.23;;
15063;SDS011;7631;52.088;5.088;2023-11-21T07:26:33;3.40;;;2.37;;
15063;SDS011;7631;52.088;5.088;2023-11-21T07:29:01;2.70;;;2.30;;
15063;SDS011;7631;52.088;5.088;2023-11-21T07:31:27;2.60;;;2.23;;
15063;SDS011;7631;52.088;5.088;2023-11-21T07:33:52;3.93;;;2.40;;
15063;SDS011;7631;52.088;5.088;2023-11-21T07:36:18;3.13;;;2.50;;
15063;SDS011;7631;52.088;5.088;2023-11-21T07:38:45;3.50;;;2.63;;
15063;SDS011;7631;52.088;5.088;2023-11-21T07:41:11;2.17;;;1.97;;
15063;SDS011;7631;52.088;5.088;2023-11-21T07:43:36;2.43;;;2.20;;
15063;SDS011;7631;52.088;5.088;2023-11-21T07:46:02;2.58;;;2.10;;
15063;SDS011;7631;52.088;5.088;2023-11-21T07:48:28;2.60;;;2.40;;
15063;SDS011;7631;52.088;5.088;2023-11-21T07:50:54;2.97;;;2.57;;
15063;SDS011;7631;52.088;5.088;2023-11-21T07:53:19;4.70;;;2.70;;
15063;SDS011;7631;52.088;5.088;2023-11-21T07:55:44;3.00;;;2.60;;
15063;SDS011;7631;52.088;5.088;2023-11-21T07:58:10;2.90;;;2.17;;
15063;SDS011;7631;52.088;5.088;2023-11-21T08:00:36;3.90;;;2.73;;
15063;SDS011;7631;52.088;5.088;2023-11-21T08:03:02;2.20;;;2.00;;
15063;SDS011;7631;52.088;5.088;2023-11-21T08:05:28;3.97;;;2.83;;
15063;SDS011;7631;52.088;5.088;2023-11-21T08:07:53;2.60;;;2.13;;
15063;SDS011;7631;52.088;5.088;2023-11-21T08:10:18;2.80;;;2.40;;
15063;SDS011;7631;52.088;5.088;2023-11-21T08:12:43;2.70;;;2.50;;
15063;SDS011;7631;52.088;5.088;2023-11-21T08:15:09;4.63;;;2.73;;
15063;SDS011;7631;52.088;5.088;2023-11-21T08:17:35;2.63;;;2.40;;
15063;SDS011;7631;52.088;5.088;2023-11-21T08:20:00;3.33;;;2.10;;
15063;SDS011;7631;52.088;5.088;2023-11-21T08:22:27;3.67;;;2.43;;
15063;SDS011;7631;52.088;5.088;2023-11-21T08:24:52;5.07;;;2.80;;
15063;SDS011;7631;52.088;5.088;2023-11-21T08:27:17;2.63;;;2.43;;
15063;SDS011;7631;52.088;5.088;2023-11-21T08:29:43;3.33;;;2.50;;
15063;SDS011;7631;52.088;5.088;2023-11-21T08:32:08;3.03;;;2.20;;
15063;SDS011;7631;52.088;5.088;2023-11-21T08:34:33;3.73;;;2.53;;
15063;SDS011;7631;52.088;5.088;2023-11-21T08:36:58;2.67;;;2.40;;
15063;SDS011;7631;52.088;5.088;2023-11-21T08:39:24;4.27;;;2.73;;
15063;SDS011;7631;52.088;5.088;2023-11-21T08:41:49;2.83;;;2.50;;
15063;SDS011;7631;52.088;5.088;2023-11-21T08:44:15;2.90;;;2.60;;
15063;SDS011;7631;52.088;5.088;2023-11-21T08:46:43;3.70;;;2.03;;
15063;SDS011;7631;52.088;5.088;2023-11-21T08:49:10;3.30;;;2.37;;
15063;SDS011;7631;52.088;5.088;2023-11-21T08:51:35;3.50;;;2.73;;
15063;SDS011;7631;52.088;5.088;2023-11-21T08:54:00;3.47;;;2.83;;
15063;SDS011;7631;52.088;5.088;2023-11-21T08:56:29;3.03;;;2.50;;
15063;SDS011;7631;52.088;5.088;2023-11-21T08:58:54;4.33;;;2.90;;
15063;SDS011;7631;52.088;5.088;2023-11-21T09:01:19;3.27;;;2.70;;
15063;SDS011;7631;52.088;5.088;2023-11-21T09:03:46;3.27;;;2.60;;
15063;SDS011;7631;52.088;5.088;2023-11-21T09:06:11;3.97;;;3.23;;
15063;SDS011;7631;52.088;5.088;2023-11-21T09:08:36;3.77;;;2.90;;
15063;SDS011;7631;52.088;5.088;2023-11-21T09:11:02;4.23;;;3.00;;
15063;SDS011;7631;52.088;5.088;2023-11-21T09:13:27;4.13;;;2.90;;
15063;SDS011;7631;52.088;5.088;2023-11-21T09:15:54;3.93;;;3.33;;
15063;SDS011;7631;52.088;5.088;2023-11-21T09:18:20;5.10;;;3.30;;
15063;SDS011;7631;52.088;5.088;2023-11-21T09:20:45;2.90;;;2.60;;
15063;SDS011;7631;52.088;5.088;2023-11-21T09:23:11;4.10;;;2.73;;
15063;SDS011;7631;52.088;5.088;2023-11-21T09:25:36;3.10;;;2.67;;
15063;SDS011;7631;52.088;5.088;2023-11-21T09:28:03;3.40;;;3.07;;
15063;SDS011;7631;52.088;5.088;2023-11-21T09:30:30;3.47;;;2.73;;
15063;SDS011;7631;52.088;5.088;2023-11-21T09:32:55;3.73;;;3.10;;
15063;SDS011;7631;52.088;5.088;2023-11-21T09:35:21;3.17;;;2.70;;
15063;SDS011;7631;52.088;5.088;2023-11-21T09:37:46;3.43;;;2.80;;
15063;SDS011;7631;52.088;5.088;2023-11-21T09:40:11;2.90;;;2.60;;
15063;SDS011;7631;52.088;5.088;2023-11-21T09:43:04;2.90;;;2.43;;
15063;SDS011;7631;52.088;5.088;2023-11-21T09:45:39;2.97;;;2.60;;
15063;SDS011;7631;52.088;5.088;2023-11-21T09:48:04;2.70;;;2.30;;
15063;SDS011;7631;52.088;5.088;2023-11-21T09:50:31;3.23;;;2.90;;
15063;SDS011;7631;52.088;5.088;2023-11-21T09:53:03;3.30;;;2.73;;
15063;SDS011;7631;52.088;5.088;2023-11-21T09:55:29;2.93;;;2.63;;
15063;SDS011;7631;52.088;5.088;2023-11-21T09:58:00;4.47;;;2.70;;
15063;SDS011;7631;52.088;5.088;2023-11-21T10:00:26;2.83;;;2.50;;
15063;SDS011;7631;52.088;5.088;2023-11-21T10:02:52;2.53;;;2.10;;
15063;SDS011;7631;52.088;5.088;2023-11-21T10:05:18;2.90;;;2.60;;
15063;SDS011;7631;52.088;5.088;2023-11-21T10:07:47;3.23;;;2.90;;
15063;SDS011;7631;52.088;5.088;2023-11-21T10:10:13;3.73;;;2.30;;
15063;SDS011;7631;52.088;5.088;2023-11-21T10:12:39;3.10;;;2.60;;
15063;SDS011;7631;52.088;5.088;2023-11-21T10:15:07;2.87;;;2.57;;
15063;SDS011;7631;52.088;5.088;2023-11-21T10:17:33;3.00;;;2.13;;
15063;SDS011;7631;52.088;5.088;2023-11-21T10:20:06;3.23;;;2.43;;
15063;SDS011;7631;52.088;5.088;2023-11-21T10:22:37;2.50;;;2.13;;
15063;SDS011;7631;52.088;5.088;2023-11-21T10:25:02;2.90;;;2.47;;
15063;SDS011;7631;52.088;5.088;2023-11-21T10:27:27;2.77;;;2.27;;
15063;SDS011;7631;52.088;5.088;2023-11-21T10:29:52;3.17;;;2.50;;
15063;SDS011;7631;52.088;5.088;2023-11-21T10:32:18;2.93;;;2.10;;
15063;SDS011;7631;52.088;5.088;2023-11-21T10:34:55;3.40;;;2.63;;
15063;SDS011;7631;52.088;5.088;2023-11-21T10:37:20;3.60;;;2.50;;
15063;SDS011;7631;52.088;5.088;2023-11-21T10:39:45;2.43;;;2.20;;
15063;SDS011;7631;52.088;5.088;2023-11-21T10:42:11;2.90;;;2.60;;
15063;SDS011;7631;52.088;5.088;2023-11-21T10:44:36;3.07;;;2.50;;
15063;SDS011;7631;52.088;5.088;2023-11-21T10:47:01;2.60;;;2.37;;
15063;SDS011;7631;52.088;5.088;2023-11-21T10:49:27;2.60;;;2.40;;
15063;SDS011;7631;52.088;5.088;2023-11-21T10:51:53;3.10;;;2.20;;
15063;SDS011;7631;52.088;5.088;2023-11-21T10:54:19;3.03;;;2.17;;
15063;SDS011;7631;52.088;5.088;2023-11-21T10:56:45;3.50;;;2.53;;
15063;SDS011;7631;52.088;5.088;2023-11-21T10:59:11;2.93;;;2.63;;
15063;SDS011;7631;52.088;5.088;2023-11-21T11:01:39;3.57;;;2.73;;
15063;SDS011;7631;52.088;5.088;2023-11-21T11:04:05;3.17;;;2.77;;
15063;SDS011;7631;52.088;5.088;2023-11-21T11:06:31;4.67;;;2.53;;
15063;SDS011;7631;52.088;5.088;2023-11-21T11:08:58;4.20;;;2.80;;
15063;SDS011;7631;52.088;5.088;2023-11-21T11:11:24;3.80;;;2.93;;
15063;SDS011;7631;52.088;5.088;2023-11-21T11:13:49;3.10;;;2.53;;
15063;SDS011;7631;52.088;5.088;2023-11-21T11:16:15;4.00;;;2.60;;
15063;SDS011;7631;52.088;5.088;2023-11-21T11:18:42;4.50;;;3.07;;
15063;SDS011;7631;52.088;5.088;2023-11-21T11:21:11;4.33;;;3.30;;
15063;SDS011;7631;52.088;5.088;2023-11-21T11:29:23;4.07;;;3.07;;
15063;SDS011;7631;52.088;5.088;2023-11-21T11:31:55;4.10;;;3.00;;
15063;SDS011;7631;52.088;5.088;2023-11-21T11:34:29;3.40;;;2.90;;
15063;SDS011;7631;52.088;5.088;2023-11-21T11:39:27;6.47;;;4.00;;
15063;SDS011;7631;52.088;5.088;2023-11-21T11:41:52;3.67;;;2.93;;
15063;SDS011;7631;52.088;5.088;2023-11-21T11:50:01;4.90;;;3.83;;
15063;SDS011;7631;52.088;5.088;2023-11-21T11:52:32;4.73;;;3.67;;
15063;SDS011;7631;52.088;5.088;2023-11-21T11:54:59;5.93;;;3.90;;
15063;SDS011;7631;52.088;5.088;2023-11-21T11:57:24;4.70;;;3.60;;
15063;SDS011;7631;52.088;5.088;2023-11-21T12:02:37;3.90;;;3.30;;
15063;SDS011;7631;52.088;5.088;2023-11-21T12:05:12;5.20;;;4.00;;
15063;SDS011;7631;52.088;5.088;2023-11-21T12:10:25;4.50;;;3.70;;
15063;SDS011;7631;52.088;5.088;2023-11-21T12:15:17;5.87;;;4.47;;
15063;SDS011;7631;52.088;5.088;2023-11-21T12:17:44;5.50;;;4.77;;
15063;SDS011;7631;52.088;5.088;2023-11-21T12:20:10;4.87;;;4.20;;
15063;SDS011;7631;52.088;5.088;2023-11-21T12:22:44;6.13;;;4.43;;
15063;SDS011;7631;52.088;5.088;2023-11-21T12:25:12;5.73;;;4.27;;
15063;SDS011;7631;52.088;5.088;2023-11-21T12:27:41;5.83;;;4.40;;
15063;SDS011;7631;52.088;5.088;2023-11-21T12:30:06;7.03;;;4.30;;
15063;SDS011;7631;52.088;5.088;2023-11-21T12:32:37;5.53;;;4.10;;
15063;SDS011;7631;52.088;5.088;2023-11-21T12:35:02;7.17;;;4.80;;
15063;SDS011;7631;52.088;5.088;2023-11-21T12:37:28;6.37;;;4.47;;
15063;SDS011;7631;52.088;5.088;2023-11-21T12:39:53;6.20;;;4.60;;
15063;SDS011;7631;52.088;5.088;2023-11-21T12:42:22;6.53;;;5.10;;
15063;SDS011;7631;52.088;5.088;2023-11-21T12:44:48;5.87;;;4.40;;
15063;SDS011;7631;52.088;5.088;2023-11-21T12:47:16;6.07;;;4.73;;
15063;SDS011;7631;52.088;5.088;2023-11-21T12:49:41;7.33;;;4.67;;
15063;SDS011;7631;52.088;5.088;2023-11-21T12:52:09;5.40;;;4.27;;
15063;SDS011;7631;52.088;5.088;2023-11-21T12:54:34;5.80;;;4.70;;
15063;SDS011;7631;52.088;5.088;2023-11-21T12:57:00;6.93;;;4.90;;
15063;SDS011;7631;52.088;5.088;2023-11-21T12:59:26;7.33;;;5.30;;
15063;SDS011;7631;52.088;5.088;2023-11-21T13:01:53;6.37;;;4.83;;
15063;SDS011;7631;52.088;5.088;2023-11-21T13:04:28;6.33;;;5.07;;
15063;SDS011;7631;52.088;5.088;2023-11-21T13:06:54;6.57;;;4.90;;
15063;SDS011;7631;52.088;5.088;2023-11-21T13:09:20;6.87;;;5.37;;
15063;SDS011;7631;52.088;5.088;2023-11-21T13:11:46;5.63;;;5.00;;
15063;SDS011;7631;52.088;5.088;2023-11-21T13:14:11;6.73;;;5.40;;
15063;SDS011;7631;52.088;5.088;2023-11-21T13:16:37;6.63;;;5.43;;
15063;SDS011;7631;52.088;5.088;2023-11-21T13:19:04;6.23;;;5.03;;
15063;SDS011;7631;52.088;5.088;2023-11-21T13:21:29;5.63;;;4.93;;
15063;SDS011;7631;52.088;5.088;2023-11-21T13:23:54;6.57;;;5.10;;
15063;SDS011;7631;52.088;5.088;2023-11-21T13:26:19;7.03;;;5.10;;
15063;SDS011;7631;52.088;5.088;2023-11-21T13:28:46;6.63;;;5.77;;
15063;SDS011;7631;52.088;5.088;2023-11-21T13:31:12;6.60;;;4.97;;
15063;SDS011;7631;52.088;5.088;2023-11-21T13:33:50;7.37;;;5.40;;
15063;SDS011;7631;52.088;5.088;2023-11-21T13:36:24;5.80;;;4.87;;
15063;SDS011;7631;52.088;5.088;2023-11-21T13:38:49;6.73;;;5.33;;
15063;SDS011;7631;52.088;5.088;2023-11-21T13:41:15;7.23;;;6.03;;
15063;SDS011;7631;52.088;5.088;2023-11-21T13:43:40;6.13;;;5.50;;
15063;SDS011;7631;52.088;5.088;2023-11-21T13:46:09;7.20;;;5.47;;
15063;SDS011;7631;52.088;5.088;2023-11-21T13:48:46;6.10;;;5.00;;
15063;SDS011;7631;52.088;5.088;2023-11-21T13:51:21;7.47;;;5.63;;
15063;SDS011;7631;52.088;5.088;2023-11-21T13:53:57;6.10;;;5.00;;
15063;SDS011;7631;52.088;5.088;2023-11-21T13:56:23;6.37;;;5.23;;
15063;SDS011;7631;52.088;5.088;2023-11-21T13:58:51;7.07;;;5.47;;
15063;SDS011;7631;52.088;5.088;2023-11-21T14:01:21;7.33;;;5.33;;
15063;SDS011;7631;52.088;5.088;2023-11-21T14:03:55;6.50;;;5.13;;
15063;SDS011;7631;52.088;5.088;2023-11-21T14:06:27;6.93;;;5.33;;
15063;SDS011;7631;52.088;5.088;2023-11-21T14:09:00;6.83;;;5.63;;
15063;SDS011;7631;52.088;5.088;2023-11-21T14:11:30;6.27;;;5.67;;
15063;SDS011;7631;52.088;5.088;2023-11-21T14:13:55;7.57;;;5.70;;
15063;SDS011;7631;52.088;5.088;2023-11-21T14:16:21;7.57;;;6.03;;
15063;SDS011;7631;52.088;5.088;2023-11-21T14:18:47;7.47;;;5.90;;
15063;SDS011;7631;52.088;5.088;2023-11-21T14:21:26;8.00;;;5.67;;
15063;SDS011;7631;52.088;5.088;2023-11-21T14:23:52;7.23;;;5.53;;
15063;SDS011;7631;52.088;5.088;2023-11-21T14:26:19;7.13;;;5.50;;
15063;SDS011;7631;52.088;5.088;2023-11-21T14:28:45;6.50;;;5.40;;
15063;SDS011;7631;52.088;5.088;2023-11-21T14:31:13;7.63;;;5.77;;
15063;SDS011;7631;52.088;5.088;2023-11-21T14:33:40;7.60;;;5.90;;
15063;SDS011;7631;52.088;5.088;2023-11-21T14:36:06;6.37;;;5.43;;
15063;SDS011;7631;52.088;5.088;2023-11-21T14:38:33;6.57;;;5.43;;
15063;SDS011;7631;52.088;5.088;2023-11-21T14:40:59;6.83;;;5.83;;
15063;SDS011;7631;52.088;5.088;2023-11-21T14:43:24;6.87;;;6.03;;
15063;SDS011;7631;52.088;5.088;2023-11-21T14:45:50;7.47;;;6.57;;
15063;SDS011;7631;52.088;5.088;2023-11-21T14:48:16;8.00;;;5.73;;
15063;SDS011;7631;52.088;5.088;2023-11-21T14:50:41;7.43;;;5.83;;
15063;SDS011;7631;52.088;5.088;2023-11-21T14:53:07;8.83;;;6.53;;
15063;SDS011;7631;52.088;5.088;2023-11-21T14:55:33;7.23;;;6.03;;
15063;SDS011;7631;52.088;5.088;2023-11-21T14:58:08;8.67;;;6.83;;
15063;SDS011;7631;52.088;5.088;2023-11-21T15:00:38;8.83;;;6.40;;
15063;SDS011;7631;52.088;5.088;2023-11-21T15:03:09;8.90;;;6.93;;
15063;SDS011;7631;52.088;5.088;2023-11-21T15:05:35;8.93;;;7.60;;
15063;SDS011;7631;52.088;5.088;2023-11-21T15:08:00;8.07;;;7.27;;
15063;SDS011;7631;52.088;5.088;2023-11-21T15:10:48;8.30;;;7.10;;
15063;SDS011;7631;52.088;5.088;2023-11-21T15:13:18;9.27;;;8.03;;
15063;SDS011;7631;52.088;5.088;2023-11-21T15:15:44;8.47;;;7.30;;
15063;SDS011;7631;52.088;5.088;2023-11-21T15:18:09;8.63;;;7.20;;